Time;durP1;ratioP1;P1;durP2;ratioP2;P2;SDS_P1;SDS_P2;PMS_P1;PMS_P2;Temp;Humidity;BMP_temperature;BMP_pressure;BME280_temperature;BME280_humidity;BME280_pressure;Samples;Min_cycle;Max_cycle;Signal;HPM_P1;HPM_P2
2022/06/04 00:00:34;;;;;;;15.40;10.15;;;11.70;99.90;;;;;;5058155;28;20682;-60
2022/06/04 00:03:01;;;;;;;12.00;9.35;;;11.70;99.90;;;;;;5064618;28;20084;-61
2022/06/04 00:05:30;;;;;;;15.43;10.05;;;11.60;99.90;;;;;;5070790;28;20049;-61
2022/06/04 00:07:58;;;;;;;10.20;8.55;;;11.60;99.90;;;;;;5065457;28;20052;-56
2022/06/04 00:15:57;;;;;;;10.77;8.05;;;11.50;99.90;;;;;;5063943;28;20052;-57
2022/06/04 00:18:24;;;;;;;13.25;9.38;;;11.50;99.90;;;;;;5059786;28;20044;-61
2022/06/04 00:20:51;;;;;;;14.63;9.43;;;11.50;99.90;;;;;;5043759;28;20080;-61
2022/06/04 00:23:18;;;;;;;13.23;9.02;;;11.50;99.90;;;;;;5057778;28;20052;-57
2022/06/04 00:25:49;;;;;;;10.68;9.13;;;11.50;99.90;;;;;;5047450;28;20058;-57
2022/06/04 00:28:17;;;;;;;13.13;9.05;;;11.40;99.90;;;;;;5066721;28;20102;-61
2022/06/04 00:30:44;;;;;;;16.52;8.88;;;11.40;99.90;;;;;;5063646;28;20055;-61
2022/06/04 00:33:11;;;;;;;12.20;9.32;;;11.40;99.90;;;;;;5053098;28;20053;-61
2022/06/04 00:35:38;;;;;;;20.42;10.25;;;11.40;99.90;;;;;;5053164;28;20139;-61
2022/06/04 00:38:05;;;;;;;18.13;10.45;;;11.40;99.90;;;;;;5048814;28;20048;-61
2022/06/04 00:40:50;;;;;;;15.15;9.60;;;11.30;99.90;;;;;;5063338;28;20045;-57
2022/06/04 00:43:17;;;;;;;15.35;10.40;;;11.30;99.90;;;;;;5046316;28;20060;-57
2022/06/04 00:46:01;;;;;;;15.23;10.48;;;11.30;99.90;;;;;;5061747;28;20044;-56
2022/06/04 00:48:27;;;;;;;16.90;10.63;;;11.30;99.90;;;;;;5055140;28;20561;-58
2022/06/04 00:50:54;;;;;;;16.90;9.88;;;11.30;99.90;;;;;;5044406;28;20724;-58
2022/06/04 00:53:20;;;;;;;17.63;10.07;;;11.30;99.90;;;;;;5069343;28;20084;-57
2022/06/04 00:56:10;;;;;;;14.65;10.82;;;11.30;99.90;;;;;;5074448;28;20077;-56
2022/06/04 00:58:56;;;;;;;14.15;10.73;;;11.30;99.90;;;;;;5060310;28;20059;-57
2022/06/04 01:01:24;;;;;;;19.10;11.80;;;11.30;99.90;;;;;;5039982;28;20788;-61
2022/06/04 01:04:47;;;;;;;16.00;10.77;;;11.30;99.90;;;;;;5060577;28;20438;-58
2022/06/04 01:07:17;;;;;;;15.68;10.88;;;11.30;99.90;;;;;;5054937;28;20053;-58
2022/06/04 01:09:59;;;;;;;18.27;11.10;;;11.30;99.90;;;;;;5053312;28;20106;-58
2022/06/04 01:12:52;;;;;;;18.42;11.52;;;11.30;99.90;;;;;;5060893;28;20056;-57
2022/06/04 01:15:28;;;;;;;16.15;11.07;;;11.20;99.90;;;;;;5062551;28;20102;-58
2022/06/04 01:18:25;;;;;;;14.85;11.85;;;11.30;99.90;;;;;;5060360;28;20044;-58
2022/06/04 01:21:17;;;;;;;16.67;10.70;;;11.20;99.90;;;;;;5056535;28;20677;-58
2022/06/04 01:24:04;;;;;;;16.98;11.65;;;11.20;99.90;;;;;;5062345;28;20040;-58
2022/06/04 01:26:54;;;;;;;14.88;11.15;;;11.20;99.90;;;;;;5047087;28;20514;-58
2022/06/04 01:29:34;;;;;;;18.50;11.75;;;11.20;99.90;;;;;;5062124;28;20123;-58
2022/06/04 01:32:13;;;;;;;16.65;11.90;;;11.10;99.90;;;;;;5058681;28;20056;-58
2022/06/04 01:34:49;;;;;;;15.23;12.35;;;11.10;99.90;;;;;;5062626;28;20079;-58
2022/06/04 01:38:00;;;;;;;22.83;13.57;;;11.10;99.90;;;;;;5074477;28;20083;-61
2022/06/04 01:43:33;;;;;;;18.63;12.65;;;11.10;99.90;;;;;;5053170;28;20114;-60
2022/06/04 01:46:06;;;;;;;15.65;12.23;;;11.10;99.90;;;;;;5065049;28;20457;-57
2022/06/04 01:48:33;;;;;;;16.83;13.05;;;11.00;99.90;;;;;;5075625;28;20517;-57
2022/06/04 01:51:03;;;;;;;16.45;11.65;;;11.00;99.90;;;;;;5061727;28;20499;-60
2022/06/04 01:53:36;;;;;;;21.65;12.90;;;11.00;99.90;;;;;;5059000;28;20040;-60
2022/06/04 01:56:07;;;;;;;15.73;12.02;;;11.00;99.90;;;;;;5065996;28;20693;-60
2022/06/04 01:58:58;;;;;;;19.20;13.40;;;11.00;99.90;;;;;;5067662;28;20688;-60
2022/06/04 02:01:31;;;;;;;18.15;12.60;;;11.00;99.90;;;;;;5063371;28;20286;-57
2022/06/04 02:04:12;;;;;;;18.17;13.32;;;10.90;99.90;;;;;;5051089;28;20158;-56
2022/06/04 02:06:46;;;;;;;21.77;12.93;;;10.90;99.90;;;;;;5061570;28;20047;-60
2022/06/04 02:09:15;;;;;;;19.20;12.82;;;10.90;99.90;;;;;;5049248;28;20677;-58
2022/06/04 02:11:48;;;;;;;18.90;13.50;;;10.90;99.90;;;;;;5056879;28;20058;-57
2022/06/04 02:14:15;;;;;;;21.52;12.90;;;10.90;99.90;;;;;;5061086;28;20060;-58
2022/06/04 02:16:48;;;;;;;17.70;13.85;;;10.90;99.90;;;;;;5043618;28;20075;-58
2022/06/04 02:19:14;;;;;;;20.25;13.30;;;10.90;99.90;;;;;;5076476;28;20059;-57
2022/06/04 02:21:40;;;;;;;17.17;13.48;;;10.80;99.90;;;;;;5044276;28;20138;-58
2022/06/04 02:24:08;;;;;;;21.23;14.15;;;10.80;99.90;;;;;;5049033;28;20051;-61
2022/06/04 02:26:35;;;;;;;20.27;13.75;;;10.80;99.90;;;;;;5063127;28;20045;-61
2022/06/04 02:29:02;;;;;;;19.15;12.95;;;10.80;99.90;;;;;;5061156;28;20136;-61
2022/06/04 02:31:59;;;;;;;22.80;13.68;;;10.80;99.90;;;;;;5060774;28;20582;-61
2022/06/04 02:34:49;;;;;;;17.65;13.13;;;10.80;99.90;;;;;;5061830;28;20048;-61
2022/06/04 02:37:57;;;;;;;22.60;14.10;;;10.80;99.90;;;;;;5067862;28;20048;-57
2022/06/04 02:40:34;;;;;;;16.40;13.45;;;10.80;99.90;;;;;;5044955;28;20151;-60
2022/06/04 02:43:17;;;;;;;23.35;13.90;;;10.70;99.90;;;;;;5068618;28;20060;-57
2022/06/04 02:46:00;;;;;;;19.25;13.68;;;10.70;99.90;;;;;;5047087;28;20044;-57
2022/06/04 02:48:37;;;;;;;16.25;13.45;;;10.70;99.90;;;;;;5060062;28;20542;-57
2022/06/04 02:51:11;;;;;;;20.48;14.98;;;10.70;99.90;;;;;;5060747;28;20055;-58
2022/06/04 02:53:39;;;;;;;22.38;13.55;;;10.60;99.90;;;;;;5066820;28;20126;-61
2022/06/04 02:56:26;;;;;;;20.00;14.07;;;10.60;99.90;;;;;;5061316;28;20049;-61
2022/06/04 02:58:56;;;;;;;20.90;13.45;;;10.60;99.90;;;;;;5064882;28;20055;-62
2022/06/04 03:01:23;;;;;;;21.38;14.52;;;10.60;99.90;;;;;;5060589;28;20102;-61
2022/06/04 03:03:49;;;;;;;19.00;14.20;;;10.60;99.90;;;;;;5068799;28;20044;-63
2022/06/04 03:06:25;;;;;;;19.70;14.43;;;10.60;99.90;;;;;;5057678;28;20049;-61
2022/06/04 03:08:53;;;;;;;17.33;13.50;;;10.60;99.90;;;;;;5043822;28;20671;-61
2022/06/04 03:11:20;;;;;;;20.70;13.68;;;10.50;99.90;;;;;;5063748;28;20052;-62
2022/06/04 03:13:47;;;;;;;18.17;14.05;;;10.50;99.90;;;;;;5061750;28;20053;-61
2022/06/04 03:16:16;;;;;;;21.30;14.52;;;10.50;99.90;;;;;;5058180;28;20051;-61
2022/06/04 03:18:43;;;;;;;20.42;15.20;;;10.50;99.90;;;;;;5056653;28;20577;-61
2022/06/04 03:21:10;;;;;;;20.10;15.82;;;10.50;99.90;;;;;;5076725;28;20048;-62
2022/06/04 03:23:37;;;;;;;19.15;15.15;;;10.50;99.90;;;;;;5061502;28;20048;-62
2022/06/04 03:26:04;;;;;;;19.40;15.32;;;10.50;99.90;;;;;;5072578;28;20836;-62
2022/06/04 03:28:30;;;;;;;19.98;15.20;;;10.50;99.90;;;;;;5060611;28;20147;-61
2022/06/04 03:30:56;;;;;;;20.13;15.55;;;10.50;99.90;;;;;;5063520;28;20052;-61
2022/06/04 03:33:23;;;;;;;23.98;15.77;;;10.60;99.90;;;;;;5047621;28;20048;-61
2022/06/04 03:35:49;;;;;;;22.08;15.00;;;10.50;99.90;;;;;;5064109;28;20048;-61
2022/06/04 03:38:15;;;;;;;19.80;14.52;;;10.60;99.90;;;;;;5061979;28;20048;-61
2022/06/04 03:40:41;;;;;;;19.23;13.65;;;10.60;99.90;;;;;;5056661;28;20044;-61
2022/06/04 03:43:07;;;;;;;18.42;14.77;;;10.60;99.90;;;;;;5030543;28;20069;-61
2022/06/04 03:45:33;;;;;;;19.92;13.25;;;10.60;99.90;;;;;;5053805;28;20067;-61
2022/06/04 03:48:00;;;;;;;17.52;12.63;;;10.60;99.90;;;;;;5061366;28;20052;-62
2022/06/04 03:50:26;;;;;;;17.88;12.70;;;10.60;99.90;;;;;;5053647;28;20080;-61
2022/06/04 03:52:52;;;;;;;17.15;12.55;;;10.60;99.90;;;;;;5051312;28;20041;-58
2022/06/04 03:55:20;;;;;;;19.48;12.75;;;10.60;99.90;;;;;;5063721;28;20127;-57
2022/06/04 03:57:48;;;;;;;17.25;12.35;;;10.70;99.90;;;;;;5058670;28;20045;-57
2022/06/04 04:00:41;;;;;;;17.15;11.85;;;10.70;99.90;;;;;;5048171;28;20532;-58
2022/06/04 04:03:16;;;;;;;17.92;12.25;;;10.70;99.90;;;;;;5057487;28;20113;-58
2022/06/04 04:05:48;;;;;;;15.35;12.43;;;10.80;99.90;;;;;;5059421;28;20053;-57
2022/06/04 04:08:15;;;;;;;17.33;11.48;;;10.70;99.90;;;;;;5073103;28;20141;-57
2022/06/04 04:10:43;;;;;;;16.40;11.75;;;10.80;99.90;;;;;;5066496;28;20566;-57
2022/06/04 04:13:11;;;;;;;14.23;11.57;;;10.70;99.90;;;;;;5044907;28;20125;-57
2022/06/04 04:15:38;;;;;;;15.88;10.38;;;10.80;99.90;;;;;;5063396;28;20040;-57
2022/06/04 04:18:05;;;;;;;15.68;11.05;;;10.80;99.90;;;;;;5064246;28;20076;-57
2022/06/04 04:20:34;;;;;;;15.52;10.38;;;10.80;99.90;;;;;;5066307;28;20040;-58
2022/06/04 04:23:01;;;;;;;18.38;11.90;;;10.90;99.90;;;;;;5077705;28;20088;-61
2022/06/04 04:25:29;;;;;;;15.07;11.07;;;10.90;99.90;;;;;;5045137;28;20087;-61
2022/06/04 04:27:56;;;;;;;17.67;10.70;;;10.90;99.90;;;;;;5059830;28;20075;-62
2022/06/04 04:30:24;;;;;;;14.88;10.50;;;10.90;99.90;;;;;;5072879;28;20079;-62
2022/06/04 04:32:51;;;;;;;17.55;9.75;;;11.00;99.90;;;;;;5065147;28;20059;-62
2022/06/04 04:35:24;;;;;;;15.77;9.93;;;11.10;99.90;;;;;;5045359;28;20858;-62
2022/06/04 04:37:51;;;;;;;16.42;10.00;;;11.10;99.90;;;;;;5057363;28;20060;-62
2022/06/04 04:40:20;;;;;;;13.55;9.00;;;11.20;99.90;;;;;;5059036;28;20471;-58
2022/06/04 04:42:48;;;;;;;11.75;10.00;;;11.30;99.90;;;;;;5058482;28;20052;-58
2022/06/04 04:45:15;;;;;;;12.77;8.80;;;11.30;99.90;;;;;;5060969;28;20726;-62
2022/06/04 04:47:43;;;;;;;11.18;8.48;;;11.30;99.90;;;;;;5060246;28;20495;-58
2022/06/04 04:50:21;;;;;;;12.63;8.18;;;11.40;99.90;;;;;;5058157;28;20048;-58
2022/06/04 04:52:47;;;;;;;11.93;8.32;;;11.50;99.90;;;;;;5063490;28;20064;-58
2022/06/04 04:55:13;;;;;;;11.75;8.57;;;11.60;99.90;;;;;;5044639;28;20043;-58
2022/06/04 04:57:40;;;;;;;10.60;7.60;;;11.70;99.90;;;;;;5059334;28;20131;-59
2022/06/04 05:00:07;;;;;;;14.25;7.63;;;11.70;99.90;;;;;;5056480;28;20071;-58
2022/06/04 05:02:35;;;;;;;11.50;8.07;;;11.80;99.90;;;;;;5075774;28;20562;-58
2022/06/04 05:05:01;;;;;;;12.68;8.02;;;11.80;99.90;;;;;;5059477;28;20121;-59
2022/06/04 05:07:27;;;;;;;10.05;7.07;;;12.00;99.90;;;;;;5062546;28;20040;-59
2022/06/04 05:09:53;;;;;;;10.85;7.03;;;12.20;99.90;;;;;;5054407;28;20045;-57
2022/06/04 05:12:19;;;;;;;10.30;6.13;;;12.50;99.90;;;;;;5040977;28;20044;-57
2022/06/04 05:14:45;;;;;;;9.00;6.50;;;12.80;99.90;;;;;;5059735;28;20056;-57
2022/06/04 05:17:11;;;;;;;8.85;5.82;;;13.10;99.90;;;;;;5057891;28;20048;-57
2022/06/04 05:19:37;;;;;;;8.55;5.72;;;13.20;99.90;;;;;;5055606;28;20048;-58
2022/06/04 05:22:04;;;;;;;8.93;5.75;;;13.40;99.90;;;;;;5070035;28;20067;-59
2022/06/04 05:24:33;;;;;;;18.88;12.30;;;13.50;99.90;;;;;;5063562;28;20074;-58
2022/06/04 05:27:00;;;;;;;9.32;6.45;;;13.60;99.90;;;;;;5063857;28;20090;-61
2022/06/04 05:29:28;;;;;;;11.20;6.80;;;13.80;99.90;;;;;;5047203;28;20053;-61
2022/06/04 05:31:54;;;;;;;9.45;5.85;;;13.80;99.90;;;;;;5045104;28;20385;-61
2022/06/04 05:34:20;;;;;;;14.55;11.55;;;13.60;99.90;;;;;;5060987;28;20569;-62
2022/06/04 05:36:47;;;;;;;11.18;5.97;;;13.60;99.90;;;;;;5056271;28;20105;-61
2022/06/04 05:39:14;;;;;;;10.35;7.10;;;13.80;99.90;;;;;;5070804;28;20057;-62
2022/06/04 05:41:41;;;;;;;9.52;6.55;;;13.90;99.90;;;;;;5057068;28;20483;-61
2022/06/04 05:44:07;;;;;;;11.23;7.68;;;14.10;99.90;;;;;;5064925;28;20055;-62
2022/06/04 05:46:33;;;;;;;9.27;6.53;;;14.10;99.90;;;;;;5058950;28;20044;-62
2022/06/04 05:49:00;;;;;;;11.20;8.60;;;14.30;99.90;;;;;;5042215;28;20466;-62
2022/06/04 05:51:29;;;;;;;8.40;6.07;;;14.50;99.90;;;;;;5056771;28;20083;-62
2022/06/04 05:53:56;;;;;;;42.30;35.92;;;14.60;99.90;;;;;;5069755;28;20049;-62
2022/06/04 05:56:27;;;;;;;9.60;6.20;;;14.60;99.90;;;;;;5042552;28;20079;-62
2022/06/04 05:58:57;;;;;;;16.20;12.55;;;14.80;99.90;;;;;;5059941;28;20044;-58
2022/06/04 06:01:26;;;;;;;18.33;14.02;;;15.10;99.90;;;;;;5061177;28;20048;-58
2022/06/04 06:03:53;;;;;;;8.88;6.35;;;15.30;99.90;;;;;;5060356;28;20114;-58
2022/06/04 06:06:22;;;;;;;10.40;7.80;;;15.50;99.90;;;;;;5063046;28;20044;-58
2022/06/04 06:08:49;;;;;;;16.10;12.18;;;15.50;99.90;;;;;;5062551;28;20636;-58
2022/06/04 06:11:17;;;;;;;10.32;7.53;;;15.60;99.90;;;;;;5071570;28;20075;-58
2022/06/04 06:13:46;;;;;;;8.60;7.50;;;15.60;99.90;;;;;;5034645;28;20060;-58
2022/06/04 06:16:19;;;;;;;7.68;5.60;;;15.40;99.90;;;;;;5067738;28;20175;-58
2022/06/04 06:18:45;;;;;;;10.50;7.50;;;15.20;99.90;;;;;;5045604;28;20051;-58
2022/06/04 06:21:15;;;;;;;12.63;9.13;;;15.10;99.90;;;;;;5051087;28;20041;-58
2022/06/04 06:23:41;;;;;;;8.25;5.30;;;15.20;99.90;;;;;;5044834;28;20456;-58
2022/06/04 06:26:15;;;;;;;10.32;8.38;;;15.50;99.90;;;;;;5062432;28;20731;-58
2022/06/04 06:28:43;;;;;;;15.52;11.45;;;15.60;99.90;;;;;;5043430;28;20048;-58
2022/06/04 06:31:12;;;;;;;8.05;4.82;;;15.70;99.90;;;;;;5064432;28;20566;-58
2022/06/04 06:33:38;;;;;;;16.52;11.93;;;15.80;99.90;;;;;;5044622;28;20048;-58
2022/06/04 06:36:10;;;;;;;15.88;14.07;;;15.90;99.90;;;;;;5061007;28;20089;-62
2022/06/04 06:38:37;;;;;;;19.92;15.00;;;16.20;99.90;;;;;;5061237;28;20040;-62
2022/06/04 06:41:03;;;;;;;10.98;7.03;;;16.50;99.90;;;;;;5062514;28;20841;-62
2022/06/04 06:43:47;;;;;;;18.40;15.80;;;16.30;99.90;;;;;;5066919;28;20052;-62
2022/06/04 06:46:27;;;;;;;17.63;15.23;;;16.60;99.90;;;;;;5058227;28;20513;-58
2022/06/04 06:49:04;;;;;;;9.52;6.35;;;16.80;99.90;;;;;;5056697;28;20123;-59
2022/06/04 06:51:38;;;;;;;12.80;9.75;;;16.70;99.90;;;;;;5073021;28;20047;-61
2022/06/04 06:54:04;;;;;;;11.75;9.50;;;16.90;99.90;;;;;;5056795;28;20441;-58
2022/06/04 06:56:33;;;;;;;8.43;7.20;;;16.90;99.90;;;;;;5061363;28;20058;-62
2022/06/04 06:59:00;;;;;;;7.28;5.50;;;16.90;99.90;;;;;;5057289;28;20044;-57
2022/06/04 07:01:27;;;;;;;16.83;15.02;;;17.20;99.90;;;;;;5059965;28;20102;-62
2022/06/04 07:03:57;;;;;;;11.32;9.02;;;17.30;99.90;;;;;;5059076;28;20557;-58
2022/06/04 07:06:36;;;;;;;8.27;5.68;;;17.40;99.90;;;;;;5059269;28;20130;-62
2022/06/04 07:09:06;;;;;;;6.13;3.95;;;17.80;99.90;;;;;;5040235;28;20044;-62
2022/06/04 07:11:32;;;;;;;6.47;3.70;;;18.00;99.90;;;;;;5059680;28;20144;-62
2022/06/04 07:13:58;;;;;;;8.70;7.10;;;18.00;99.90;;;;;;5038244;28;20072;-63
2022/06/04 07:16:24;;;;;;;8.90;7.65;;;17.90;99.90;;;;;;5059394;28;20048;-63
2022/06/04 07:18:50;;;;;;;9.48;8.20;;;18.10;99.90;;;;;;5057081;28;20053;-62
2022/06/04 07:21:17;;;;;;;16.30;13.50;;;17.80;99.90;;;;;;5060102;28;20133;-60
2022/06/04 07:23:43;;;;;;;8.07;6.60;;;17.80;99.90;;;;;;5051265;28;20106;-60
2022/06/04 07:26:09;;;;;;;7.35;5.72;;;17.70;99.90;;;;;;5037595;28;20669;-60
2022/06/04 07:28:38;;;;;;;11.52;10.32;;;17.80;99.90;;;;;;5054561;28;20052;-60
2022/06/04 07:31:07;;;;;;;19.60;17.55;;;17.80;99.90;;;;;;5052381;28;20499;-59
2022/06/04 07:33:33;;;;;;;11.10;8.63;;;18.00;99.90;;;;;;5046679;28;20044;-60
2022/06/04 07:36:00;;;;;;;9.50;8.18;;;18.00;99.90;;;;;;5038298;28;20136;-59
2022/06/04 07:38:26;;;;;;;17.33;15.40;;;17.90;99.90;;;;;;5050592;28;20135;-57
2022/06/04 07:40:52;;;;;;;13.00;10.10;;;18.10;99.90;;;;;;5057591;28;20083;-55
2022/06/04 07:43:19;;;;;;;8.65;6.78;;;18.10;99.90;;;;;;5023821;28;20880;-53
2022/06/04 07:45:45;;;;;;;7.55;4.13;;;18.10;99.90;;;;;;5041851;28;20139;-55
2022/06/04 07:48:12;;;;;;;6.30;3.83;;;18.30;99.90;;;;;;5060646;28;20213;-60
2022/06/04 07:50:39;;;;;;;5.68;3.78;;;18.70;99.90;;;;;;5069153;28;20036;-56
2022/06/04 07:53:06;;;;;;;6.45;4.07;;;18.30;99.90;;;;;;5040289;28;20037;-54
2022/06/04 07:55:33;;;;;;;7.60;3.70;;;18.10;99.90;;;;;;5055006;28;20705;-54
2022/06/04 07:57:59;;;;;;;6.72;4.03;;;17.90;99.90;;;;;;5064426;28;20044;-56
2022/06/04 08:00:25;;;;;;;5.93;4.22;;;17.70;99.90;;;;;;5055114;28;20048;-55
2022/06/04 08:02:54;;;;;;;7.65;4.50;;;17.60;99.90;;;;;;5059634;28;20154;-54
2022/06/04 08:05:20;;;;;;;5.82;3.95;;;17.50;99.90;;;;;;5037291;28;20080;-56
2022/06/04 08:07:46;;;;;;;7.15;4.68;;;17.80;99.90;;;;;;5056521;28;20051;-49
2022/06/04 08:10:13;;;;;;;12.05;7.63;;;18.00;99.90;;;;;;5060736;28;20101;-51
2022/06/04 08:12:53;;;;;;;17.17;13.15;;;17.90;99.90;;;;;;5061125;28;20045;-53
2022/06/04 08:15:21;;;;;;;10.57;8.70;;;18.10;99.90;;;;;;5061175;28;20044;-54
2022/06/04 08:17:47;;;;;;;9.48;7.43;;;18.50;99.90;;;;;;5061566;28;20044;-51
2022/06/04 08:20:14;;;;;;;6.65;5.15;;;18.80;99.90;;;;;;5058166;28;20045;-52
2022/06/04 08:22:40;;;;;;;8.27;6.03;;;18.70;99.90;;;;;;5066490;28;20044;-51
2022/06/04 08:25:07;;;;;;;6.35;5.18;;;18.80;99.90;;;;;;5064291;28;20146;-53
2022/06/04 08:27:33;;;;;;;11.50;7.30;;;18.40;99.90;;;;;;5052694;28;20064;-55
2022/06/04 08:29:59;;;;;;;6.57;4.90;;;18.90;99.90;;;;;;5071448;28;20066;-60
2022/06/04 08:32:25;;;;;;;9.70;6.47;;;18.80;99.90;;;;;;5061775;28;20048;-60
2022/06/04 08:34:51;;;;;;;15.40;13.45;;;19.10;99.90;;;;;;5057035;28;20045;-59
2022/06/04 08:37:17;;;;;;;16.77;14.38;;;19.50;99.90;;;;;;5058506;28;20045;-58
2022/06/04 08:39:44;;;;;;;7.70;5.20;;;20.10;99.90;;;;;;5058821;28;20052;-58
2022/06/04 08:42:10;;;;;;;9.02;6.40;;;20.30;99.90;;;;;;5045537;28;21093;-59
2022/06/04 08:44:47;;;;;;;94.90;85.20;;;20.50;99.90;;;;;;5059334;28;20055;-55
2022/06/04 08:47:25;;;;;;;10.23;8.40;;;20.70;99.90;;;;;;5055928;28;20051;-58
2022/06/04 08:50:09;;;;;;;17.25;15.00;;;20.50;99.90;;;;;;5058674;28;20119;-57
2022/06/04 08:52:45;;;;;;;15.45;12.32;;;20.40;99.90;;;;;;5068414;28;20059;-58
2022/06/04 08:58:58;;;;;;;7.18;6.05;;;20.50;99.90;;;;;;5052852;28;20064;-49
2022/06/04 09:01:41;;;;;;;10.43;7.93;;;20.80;99.90;;;;;;5074954;28;20041;-49
2022/06/04 09:04:13;;;;;;;14.18;12.68;;;21.00;99.90;;;;;;5059608;28;20075;-51
2022/06/04 09:06:54;;;;;;;10.30;7.47;;;21.60;99.90;;;;;;5043887;28;20094;-50
2022/06/04 09:09:29;;;;;;;8.98;6.35;;;21.80;99.90;;;;;;5053768;28;20052;-52
2022/06/04 09:12:19;;;;;;;7.15;4.45;;;22.00;99.90;;;;;;5060794;28;20085;-50
2022/06/04 09:14:53;;;;;;;4.68;3.60;;;22.30;99.90;;;;;;5052441;28;20060;-47
2022/06/04 09:17:34;;;;;;;5.55;4.82;;;22.20;99.90;;;;;;5057584;28;20048;-50
2022/06/04 09:20:00;;;;;;;5.30;3.83;;;22.00;99.90;;;;;;5040884;28;20055;-50
2022/06/04 09:22:39;;;;;;;6.78;5.28;;;22.20;99.90;;;;;;5056236;28;20632;-57
2022/06/04 09:25:11;;;;;;;7.55;5.65;;;22.50;99.90;;;;;;5052757;28;20060;-48
2022/06/04 09:27:47;;;;;;;6.60;4.93;;;22.70;99.90;;;;;;5058135;28;20059;-55
2022/06/04 09:30:20;;;;;;;10.85;9.57;;;22.80;93.90;;;;;;5052372;28;20551;-55
2022/06/04 09:33:09;;;;;;;37.08;33.55;;;23.10;99.90;;;;;;5055577;28;20079;-56
2022/06/04 09:35:40;;;;;;;6.93;5.28;;;23.10;96.40;;;;;;5059789;28;20533;-55
2022/06/04 09:38:25;;;;;;;14.68;13.27;;;23.40;95.30;;;;;;5063539;28;20051;-58
2022/06/04 09:41:04;;;;;;;14.68;11.88;;;23.70;92.60;;;;;;5058838;28;20040;-58
2022/06/04 09:43:31;;;;;;;8.75;7.82;;;23.80;93.40;;;;;;5057000;28;20070;-58
2022/06/04 09:46:02;;;;;;;8.40;6.20;;;23.70;95.20;;;;;;5072513;28;20394;-59
2022/06/04 09:48:30;;;;;;;;;;;23.80;94.60;;;;;;5058778;28;20044;-57
2022/06/04 09:51:01;;;;;;;7.55;5.03;;;24.20;84.40;;;;;;5037837;28;19926;-58
2022/06/04 09:53:32;;;;;;;9.30;6.32;;;24.60;90.70;;;;;;5040695;28;20080;-58
2022/06/04 09:56:11;;;;;;;8.10;5.93;;;24.70;92.80;;;;;;5059591;28;20094;-58
2022/06/04 09:58:39;;;;;;;6.78;4.47;;;25.10;81.80;;;;;;5040421;28;20126;-58
2022/06/04 10:01:14;;;;;;;22.33;20.27;;;24.80;79.50;;;;;;5058036;28;20058;-58
2022/06/04 10:03:41;;;;;;;10.85;9.73;;;25.10;81.50;;;;;;5058273;28;20044;-58
2022/06/04 10:06:13;;;;;;;13.02;11.43;;;25.00;79.60;;;;;;5058394;28;20040;-57
2022/06/04 10:11:47;;;;;;;19.40;17.30;;;25.30;62.10;;;;;;5058775;28;20056;-57
2022/06/04 10:14:13;;;;;;;7.05;4.88;;;25.20;66.40;;;;;;5040349;28;20151;-57
2022/06/04 10:16:44;;;;;;;17.25;15.55;;;25.30;70.40;;;;;;5057136;28;20495;-57
2022/06/04 10:19:15;;;;;;;;;;;25.20;72.00;;;;;;5056474;28;20041;-58
2022/06/04 10:21:46;;;;;;;13.52;11.80;;;25.50;60.60;;;;;;5038466;28;19935;-58
2022/06/04 10:24:21;;;;;;;6.00;4.38;;;25.80;66.80;;;;;;5057602;28;20130;-58
2022/06/04 10:27:25;;;;;;;11.05;9.80;;;25.60;68.60;;;;;;5058081;28;20048;-50
2022/06/04 10:30:22;;;;;;;8.02;7.22;;;25.30;63.60;;;;;;5012617;28;20083;-46
2022/06/04 10:33:03;;;;;;;6.32;5.32;;;25.60;63.80;;;;;;5057750;28;20041;-48
2022/06/04 10:35:42;;;;;;;11.50;8.15;;;25.70;62.00;;;;;;5053142;28;20584;-50
2022/06/04 10:38:24;;;;;;;6.97;5.35;;;25.60;68.30;;;;;;5059734;28;20040;-57
2022/06/04 10:41:15;;;;;;;7.90;4.28;;;25.40;73.50;;;;;;5058744;28;20062;-56
2022/06/04 10:44:00;;;;;;;;;;;25.50;68.10;;;;;;5062647;28;20048;-59
2022/06/04 10:46:44;;;;;;;5.57;3.75;;;25.40;75.50;;;;;;5051261;28;19966;-59
2022/06/04 10:49:55;;;;;;;7.55;5.00;;;26.30;65.00;;;;;;5077217;28;20056;-58
2022/06/04 10:52:46;;;;;;;4.32;3.30;;;25.90;59.20;;;;;;4966212;28;20050;-58
2022/06/04 10:55:15;;;;;;;6.53;4.32;;;26.20;62.40;;;;;;5061719;28;20044;-57
2022/06/04 10:57:53;;;;;;;5.80;4.75;;;26.00;65.90;;;;;;5064255;28;20129;-58
2022/06/04 11:00:33;;;;;;;6.65;5.25;;;25.90;60.40;;;;;;5059358;28;20059;-58
2022/06/04 11:03:16;;;;;;;8.07;6.20;;;26.20;58.00;;;;;;5059539;28;20056;-58
2022/06/04 11:05:47;;;;;;;5.60;3.90;;;25.90;56.00;;;;;;5062638;28;20044;-58
2022/06/04 11:08:25;;;;;;;7.72;3.95;;;25.90;59.00;;;;;;5064594;28;20119;-57
2022/06/04 11:10:58;;;;;;;4.60;3.10;;;26.00;60.50;;;;;;5059744;28;20407;-58
2022/06/04 11:13:47;;;;;;;5.72;2.67;;;26.10;58.80;;;;;;5059966;28;20052;-58
2022/06/04 11:16:21;;;;;;;4.40;2.75;;;26.50;56.40;;;;;;5061322;28;20083;-57
2022/06/04 11:19:19;;;;;;;8.32;5.75;;;26.70;57.70;;;;;;5059226;28;20504;-58
2022/06/04 11:22:01;;;;;;;6.80;3.67;;;26.50;55.50;;;;;;5052956;28;20522;-57
2022/06/04 11:24:40;;;;;;;5.60;3.88;;;26.30;54.50;;;;;;5053533;28;20056;-57
2022/06/04 11:27:12;;;;;;;6.05;4.55;;;26.20;54.40;;;;;;5060690;28;20048;-58
2022/06/04 11:29:39;;;;;;;4.60;2.78;;;26.60;56.40;;;;;;5055401;28;20129;-57
2022/06/04 11:32:24;;;;;;;9.07;4.68;;;26.40;54.80;;;;;;5061649;28;20037;-58
2022/06/04 11:35:12;;;;;;;5.50;3.22;;;26.50;54.70;;;;;;5060936;28;20053;-57
2022/06/04 11:38:06;;;;;;;4.75;2.88;;;26.50;53.10;;;;;;5063232;28;20037;-57
2022/06/04 11:40:40;;;;;;;6.63;2.60;;;26.50;52.50;;;;;;5043617;28;20052;-57
2022/06/04 11:43:15;;;;;;;3.13;2.78;;;26.50;52.40;;;;;;5063949;28;20193;-58
2022/06/04 11:45:52;;;;;;;4.95;3.13;;;26.80;52.20;;;;;;5060676;28;20040;-57
2022/06/04 11:48:30;;;;;;;5.80;3.05;;;27.00;51.20;;;;;;5066746;28;20074;-57
2022/06/04 11:51:02;;;;;;;4.68;3.45;;;26.80;49.60;;;;;;5066774;28;20055;-56
2022/06/04 11:53:37;;;;;;;6.00;3.25;;;26.50;50.10;;;;;;5066540;28;20173;-58
2022/06/04 11:56:37;;;;;;;4.78;3.25;;;26.10;50.90;;;;;;5066538;28;20074;-56
2022/06/04 11:59:06;;;;;;;3.88;2.40;;;25.80;52.40;;;;;;5065424;28;20507;-57
2022/06/04 12:01:45;;;;;;;6.45;2.97;;;25.70;51.80;;;;;;5065015;28;20044;-57
2022/06/04 12:04:36;;;;;;;18.13;16.15;;;25.90;51.00;;;;;;5065052;28;20040;-57
2022/06/04 12:07:08;;;;;;;;;;;25.70;53.40;;;;;;5065214;28;20402;-57
2022/06/04 12:09:45;;;;;;;6.65;3.25;;;25.80;55.90;;;;;;5076281;28;19931;-59
2022/06/04 12:12:25;;;;;;;16.23;14.70;;;25.80;53.70;;;;;;5063233;28;20044;-58
2022/06/04 12:14:59;;;;;;;9.67;6.47;;;25.80;56.00;;;;;;5066791;28;20122;-58
2022/06/04 12:17:41;;;;;;;7.88;5.00;;;25.90;56.30;;;;;;5066680;28;20059;-58
2022/06/04 12:26:35;;;;;;;4.55;2.80;;;26.00;57.40;;;;;;5059199;28;20396;-57
2022/06/04 12:29:41;;;;;;;7.82;4.10;;;26.10;57.70;;;;;;5042332;28;20044;-56
2022/06/04 12:32:25;;;;;;;6.20;4.20;;;26.20;57.30;;;;;;5017370;28;20060;-60
2022/06/04 12:35:11;;;;;;;9.43;8.07;;;26.10;56.10;;;;;;5058834;28;20052;-61
2022/06/04 12:37:40;;;;;;;6.25;4.85;;;26.00;53.00;;;;;;5041670;28;20496;-60
2022/06/04 12:40:37;;;;;;;5.22;3.85;;;25.40;55.20;;;;;;5060684;28;20048;-60
2022/06/04 12:43:09;;;;;;;6.82;5.40;;;25.40;57.10;;;;;;5046286;28;20564;-61
2022/06/04 12:45:39;;;;;;;8.70;7.47;;;25.50;59.40;;;;;;5062288;28;20503;-61
2022/06/04 12:48:49;;;;;;;7.45;6.22;;;25.60;59.40;;;;;;5060652;28;20045;-60
2022/06/04 12:51:27;;;;;;;6.57;5.38;;;26.00;60.00;;;;;;5060419;28;20058;-57
2022/06/04 12:54:01;;;;;;;5.65;2.70;;;26.10;57.50;;;;;;5061130;28;20198;-59
2022/06/04 12:56:32;;;;;;;5.00;3.22;;;26.50;57.40;;;;;;5061297;28;20123;-60
2022/06/04 12:59:00;;;;;;;6.28;5.20;;;26.40;54.40;;;;;;5060750;28;20064;-60
2022/06/04 13:01:29;;;;;;;9.20;8.00;;;26.30;52.80;;;;;;5063252;28;20524;-60
2022/06/04 13:04:11;;;;;;;8.73;7.60;;;26.50;54.00;;;;;;5042741;28;20630;-57
2022/06/04 13:06:48;;;;;;;;;;;26.40;51.60;;;;;;5060515;28;20082;-61
2022/06/04 13:09:17;;;;;;;6.30;4.70;;;26.40;53.70;;;;;;5057908;28;20446;-58
2022/06/04 13:11:56;;;;;;;5.93;4.75;;;26.60;53.50;;;;;;5046059;28;20047;-61
2022/06/04 13:14:46;;;;;;;4.22;2.80;;;26.50;52.40;;;;;;5057666;28;20052;-58
2022/06/04 13:17:38;;;;;;;21.35;19.30;;;26.40;50.00;;;;;;5058712;28;20110;-59
2022/06/04 13:20:25;;;;;;;3.85;2.60;;;26.20;51.90;;;;;;5054484;28;20435;-59
2022/06/04 13:23:01;;;;;;;5.93;4.38;;;26.10;51.60;;;;;;5068126;28;20044;-60
2022/06/04 13:25:44;;;;;;;6.80;3.70;;;25.90;52.60;;;;;;5072659;28;20055;-59
2022/06/04 13:28:24;;;;;;;5.18;3.83;;;25.60;53.20;;;;;;5062872;28;20102;-59
2022/06/04 13:30:51;;;;;;;4.15;3.17;;;25.60;53.50;;;;;;5043640;28;20076;-59